Time;durP1;ratioP1;P1;durP2;ratioP2;P2;SDS_P1;SDS_P2;PMS_P1;PMS_P2;Temp;Humidity;BMP_temperature;BMP_pressure;BME280_temperature;BME280_humidity;BME280_pressure;Samples;Min_cycle;Max_cycle;Signal;HPM_P1;HPM_P2
2023/09/20 00:00:53;;;;;;;9.25;2.75;;;;;;;;;;5013060;28;20048;-56
2023/09/20 00:03:25;;;;;;;9.75;3.83;;;;;;;;;;5019315;28;20034;-55
2023/09/20 00:05:51;;;;;;;3.88;1.40;;;;;;;;;;5008575;28;20120;-55
2023/09/20 00:08:18;;;;;;;0.00;0.00;;;;;;;;;;5008795;28;20494;-52
2023/09/20 00:10:45;;;;;;;0.00;0.00;;;;;;;;;;5028238;28;20401;-56
2023/09/20 00:13:11;;;;;;;7.85;2.20;;;;;;;;;;5026326;28;20342;-55
2023/09/20 00:15:39;;;;;;;7.40;2.38;;;;;;;;;;5035294;28;20025;-53
2023/09/20 00:18:05;;;;;;;9.13;2.70;;;;;;;;;;5034659;28;20072;-54
2023/09/20 00:20:30;;;;;;;6.05;2.03;;;;;;;;;;5027315;28;20180;-55
2023/09/20 00:22:57;;;;;;;6.57;2.30;;;;;;;;;;5025494;28;20084;-52
2023/09/20 00:25:23;;;;;;;4.82;2.03;;;;;;;;;;5029044;28;20057;-52
2023/09/20 00:27:49;;;;;;;8.40;2.42;;;;;;;;;;5034980;28;20059;-55
2023/09/20 00:30:17;;;;;;;10.15;2.33;;;;;;;;;;5046223;28;20033;-55
2023/09/20 00:32:44;;;;;;;11.63;2.55;;;;;;;;;;5027174;28;20030;-54
2023/09/20 00:35:11;;;;;;;9.20;2.35;;;;;;;;;;5026371;28;20054;-54
2023/09/20 00:37:37;;;;;;;13.10;2.60;;;;;;;;;;5038200;28;20670;-52
2023/09/20 00:40:03;;;;;;;8.18;2.38;;;;;;;;;;5027042;28;20040;-54
2023/09/20 00:42:31;;;;;;;7.72;2.55;;;;;;;;;;5027223;28;20140;-54
2023/09/20 00:45:02;;;;;;;9.77;2.65;;;;;;;;;;5026546;28;20142;-54
2023/09/20 00:47:29;;;;;;;6.85;2.53;;;;;;;;;;5026745;28;20087;-54
2023/09/20 00:49:55;;;;;;;10.80;2.50;;;;;;;;;;5026870;28;20424;-53
2023/09/20 00:52:24;;;;;;;10.48;2.35;;;;;;;;;;5026988;28;20045;-55
2023/09/20 00:54:50;;;;;;;6.32;2.35;;;;;;;;;;5029477;28;20108;-53
2023/09/20 00:57:16;;;;;;;11.48;2.50;;;;;;;;;;5025918;28;20507;-53
2023/09/20 00:59:42;;;;;;;8.32;2.78;;;;;;;;;;5025108;28;20038;-53
2023/09/20 01:02:09;;;;;;;7.57;2.50;;;;;;;;;;5026425;28;20029;-55
2023/09/20 01:04:36;;;;;;;8.35;2.72;;;;;;;;;;5008499;28;20084;-53
2023/09/20 01:07:02;;;;;;;8.90;2.53;;;;;;;;;;5013326;28;20029;-54
2023/09/20 01:09:29;;;;;;;8.85;2.35;;;;;;;;;;5027125;28;20460;-54
2023/09/20 01:11:57;;;;;;;11.50;2.80;;;;;;;;;;5027116;28;20699;-55
2023/09/20 01:14:23;;;;;;;11.25;2.80;;;;;;;;;;5025520;28;20029;-54
2023/09/20 01:16:53;;;;;;;11.32;2.67;;;;;;;;;;5025333;28;20030;-54
2023/09/20 01:19:19;;;;;;;16.23;3.05;;;;;;;;;;5026023;28;20026;-54
2023/09/20 01:21:46;;;;;;;8.80;2.90;;;;;;;;;;5026766;28;20025;-52
2023/09/20 01:24:13;;;;;;;8.73;2.33;;;;;;;;;;5025658;28;20499;-54
2023/09/20 01:26:39;;;;;;;9.50;2.88;;;;;;;;;;5026798;28;20088;-53
2023/09/20 01:29:06;;;;;;;5.28;1.92;;;;;;;;;;5025342;28;20095;-54
2023/09/20 01:31:33;;;;;;;8.15;2.75;;;;;;;;;;5024591;28;20025;-55
2023/09/20 01:33:59;;;;;;;11.32;2.80;;;;;;;;;;5025917;28;20560;-55
2023/09/20 01:36:25;;;;;;;8.43;2.53;;;;;;;;;;5023057;28;20125;-52
2023/09/20 01:38:51;;;;;;;9.40;2.60;;;;;;;;;;5006482;28;20026;-53
2023/09/20 01:41:19;;;;;;;9.90;2.55;;;;;;;;;;5004672;28;20057;-54
2023/09/20 01:43:45;;;;;;;11.38;2.40;;;;;;;;;;5006575;28;20524;-54
2023/09/20 01:46:11;;;;;;;10.85;2.40;;;;;;;;;;4997592;28;20550;-54
2023/09/20 01:48:37;;;;;;;12.02;2.83;;;;;;;;;;4986179;28;20581;-53
2023/09/20 01:51:03;;;;;;;13.07;3.30;;;;;;;;;;5007547;28;20584;-55
2023/09/20 01:53:30;;;;;;;9.50;2.92;;;;;;;;;;5006073;28;20060;-56
2023/09/20 01:55:58;;;;;;;9.52;2.97;;;;;;;;;;5006456;28;20606;-55
2023/09/20 01:58:24;;;;;;;17.60;3.13;;;;;;;;;;5005540;28;20045;-55
2023/09/20 02:00:50;;;;;;;10.40;2.47;;;;;;;;;;5006345;28;20033;-58
2023/09/20 02:03:17;;;;;;;12.52;2.58;;;;;;;;;;4987983;28;20062;-56
2023/09/20 02:05:47;;;;;;;9.48;2.83;;;;;;;;;;4986445;28;20034;-55
2023/09/20 02:08:13;;;;;;;8.90;2.80;;;;;;;;;;4985799;28;20105;-57
2023/09/20 02:10:39;;;;;;;11.63;3.10;;;;;;;;;;4986489;28;20081;-57
2023/09/20 02:13:06;;;;;;;11.38;2.97;;;;;;;;;;4993019;28;20032;-55
2023/09/20 02:15:36;;;;;;;10.90;2.90;;;;;;;;;;5004150;28;20084;-57
2023/09/20 02:18:05;;;;;;;10.88;2.53;;;;;;;;;;5005488;28;20029;-55
2023/09/20 02:20:36;;;;;;;10.23;3.00;;;;;;;;;;5005679;28;20040;-56
2023/09/20 02:23:03;;;;;;;9.13;2.88;;;;;;;;;;5003714;28;20041;-56
2023/09/20 02:25:29;;;;;;;11.23;3.42;;;;;;;;;;5015358;28;20049;-57
2023/09/20 02:27:59;;;;;;;9.23;2.47;;;;;;;;;;5021625;28;20094;-57
2023/09/20 02:30:28;;;;;;;9.82;2.75;;;;;;;;;;5022961;28;20026;-56
2023/09/20 02:32:55;;;;;;;9.75;2.55;;;;;;;;;;5010956;28;20116;-54
2023/09/20 02:35:21;;;;;;;10.85;2.60;;;;;;;;;;5009321;28;20034;-56
2023/09/20 02:37:48;;;;;;;8.77;2.60;;;;;;;;;;5001040;28;20034;-57
2023/09/20 02:40:14;;;;;;;9.52;2.53;;;;;;;;;;5020016;28;20488;-55
2023/09/20 02:42:44;;;;;;;9.18;2.30;;;;;;;;;;5006009;28;20042;-56
2023/09/20 02:45:12;;;;;;;7.93;2.42;;;;;;;;;;5004828;28;20056;-55
2023/09/20 02:47:39;;;;;;;9.80;2.70;;;;;;;;;;5000714;28;20034;-56
2023/09/20 02:50:07;;;;;;;17.05;3.28;;;;;;;;;;5017423;28;20082;-56
2023/09/20 02:52:36;;;;;;;12.07;3.08;;;;;;;;;;5024527;28;20049;-56
2023/09/20 02:55:08;;;;;;;10.80;2.78;;;;;;;;;;5024323;28;20569;-55
2023/09/20 02:57:37;;;;;;;13.38;3.13;;;;;;;;;;5024403;28;20468;-53
2023/09/20 03:00:14;;;;;;;10.93;2.75;;;;;;;;;;4990006;28;20040;-54
2023/09/20 03:02:43;;;;;;;11.77;2.92;;;;;;;;;;5013935;28;20492;-57
2023/09/20 03:05:09;;;;;;;9.82;2.15;;;;;;;;;;5026679;28;20380;-57
2023/09/20 03:07:35;;;;;;;7.63;2.17;;;;;;;;;;5023322;28;20041;-54
2023/09/20 03:10:05;;;;;;;8.55;2.38;;;;;;;;;;5026333;28;20022;-59
2023/09/20 03:12:31;;;;;;;10.73;2.80;;;;;;;;;;5022184;28;20482;-56
2023/09/20 03:14:59;;;;;;;7.55;2.35;;;;;;;;;;5024593;28;20068;-57
2023/09/20 03:17:25;;;;;;;7.53;2.45;;;;;;;;;;5024174;28;20037;-56
2023/09/20 03:19:53;;;;;;;13.93;2.97;;;;;;;;;;5023292;28;20033;-56
2023/09/20 03:22:19;;;;;;;6.25;2.80;;;;;;;;;;5024711;28;20064;-54
2023/09/20 03:24:47;;;;;;;6.75;2.30;;;;;;;;;;5024626;28;20014;-54
2023/09/20 03:27:15;;;;;;;6.28;2.45;;;;;;;;;;5024078;28;20835;-53
2023/09/20 03:29:42;;;;;;;5.68;2.80;;;;;;;;;;5024010;28;20120;-54
2023/09/20 03:32:09;;;;;;;6.93;2.63;;;;;;;;;;4991021;28;20043;-53
2023/09/20 03:34:35;;;;;;;9.73;2.83;;;;;;;;;;4985332;28;20082;-52
2023/09/20 03:37:01;;;;;;;8.68;2.80;;;;;;;;;;4997970;28;20033;-52
2023/09/20 03:39:27;;;;;;;12.38;3.22;;;;;;;;;;5004700;28;20390;-54
2023/09/20 03:41:54;;;;;;;14.48;3.17;;;;;;;;;;5003955;28;20038;-54
2023/09/20 03:44:20;;;;;;;7.25;3.15;;;;;;;;;;5004358;28;20030;-52
2023/09/20 03:46:47;;;;;;;11.88;3.17;;;;;;;;;;4997298;28;20374;-54
2023/09/20 03:49:14;;;;;;;12.63;3.20;;;17.00;99.90;;;;;;5020033;28;20026;-54
2023/09/20 03:51:40;;;;;;;16.05;3.67;;;17.00;99.90;;;;;;5024607;28;20117;-53
2023/09/20 03:54:08;;;;;;;12.15;3.20;;;17.50;99.90;;;;;;5018003;28;20163;-52
2023/09/20 03:56:35;;;;;;;6.28;2.63;;;16.60;99.90;;;;;;5018600;28;20053;-55
2023/09/20 03:59:00;;;;;;;9.55;2.97;;;17.20;99.90;;;;;;5012889;28;20119;-54
2023/09/20 04:01:26;;;;;;;10.25;3.50;;;16.80;99.90;;;;;;5004006;28;20077;-55
2023/09/20 04:03:52;;;;;;;7.18;2.90;;;17.10;99.90;;;;;;4987077;28;20030;-54
2023/09/20 04:06:18;;;;;;;8.25;2.90;;;16.80;99.90;;;;;;5014956;28;20591;-53
2023/09/20 04:08:43;;;;;;;11.32;3.17;;;16.90;99.90;;;;;;5025562;28;20041;-52
2023/09/20 04:11:11;;;;;;;10.35;3.38;;;;;;;;;;5009248;28;20508;-53
2023/09/20 04:13:37;;;;;;;7.50;2.47;;;17.20;99.90;;;;;;5009386;28;20041;-54
2023/09/20 04:16:03;;;;;;;10.43;2.95;;;15.80;99.90;;;;;;5017281;28;20112;-53
2023/09/20 04:18:28;;;;;;;8.45;3.33;;;17.00;99.90;;;;;;5027163;28;20096;-53
2023/09/20 04:20:54;;;;;;;6.97;2.97;;;17.00;99.90;;;;;;5027321;28;20037;-51
2023/09/20 04:23:20;;;;;;;10.98;3.10;;;16.90;99.90;;;;;;5031550;28;20048;-53
2023/09/20 04:25:46;;;;;;;10.10;3.60;;;;;;;;;;5006202;28;20062;-52
2023/09/20 04:28:11;;;;;;;10.85;3.00;;;16.90;99.90;;;;;;5019363;28;20065;-52
2023/09/20 04:30:38;;;;;;;9.80;3.35;;;17.50;99.90;;;;;;4999610;28;20534;-53
2023/09/20 04:33:06;;;;;;;8.85;3.20;;;16.80;99.90;;;;;;4996559;28;20133;-54
2023/09/20 04:35:34;;;;;;;8.27;2.70;;;16.90;99.90;;;;;;5008368;28;20038;-53
2023/09/20 04:38:00;;;;;;;9.40;3.03;;;16.90;99.90;;;;;;5007192;28;20084;-53
2023/09/20 04:40:26;;;;;;;15.90;3.20;;;16.90;99.90;;;;;;5007206;28;20038;-55
2023/09/20 04:42:53;;;;;;;9.10;2.70;;;;;;;;;;5008983;28;20044;-56
2023/09/20 04:45:19;;;;;;;9.50;3.10;;;16.70;99.90;;;;;;5015522;28;20493;-56
2023/09/20 04:47:45;;;;;;;13.52;3.15;;;16.80;99.90;;;;;;5002284;28;20062;-55
2023/09/20 04:50:12;;;;;;;9.70;3.50;;;16.80;99.90;;;;;;5006577;28;20034;-56
2023/09/20 04:52:38;;;;;;;12.77;3.05;;;16.50;99.90;;;;;;5006684;28;20041;-56
2023/09/20 04:55:05;;;;;;;11.57;3.33;;;16.90;99.90;;;;;;5006524;28;20029;-56
2023/09/20 04:57:31;;;;;;;8.25;3.10;;;16.50;99.90;;;;;;5003546;28;20042;-52
2023/09/20 04:59:57;;;;;;;9.30;3.47;;;17.00;99.90;;;;;;5006023;28;20103;-56
2023/09/20 05:02:22;;;;;;;10.63;3.28;;;17.00;99.90;;;;;;5006894;28;20489;-56
2023/09/20 05:04:48;;;;;;;8.60;3.30;;;17.00;99.90;;;;;;5000692;28;20414;-57
2023/09/20 05:07:14;;;;;;;10.95;3.88;;;17.00;99.90;;;;;;5001792;28;20038;-55
2023/09/20 05:09:39;;;;;;;8.43;3.55;;;17.20;99.90;;;;;;5006686;28;20033;-52
2023/09/20 05:12:05;;;;;;;9.90;3.40;;;17.50;99.90;;;;;;5010921;28;20038;-54
2023/09/20 05:14:31;;;;;;;11.55;3.25;;;17.10;99.90;;;;;;5023476;28;20308;-53
2023/09/20 05:16:56;;;;;;;8.40;3.38;;;17.20;99.90;;;;;;5007495;28;20165;-56
2023/09/20 05:19:23;;;;;;;9.50;3.17;;;17.30;99.90;;;;;;5008747;28;20385;-55
2023/09/20 05:21:49;;;;;;;11.38;3.25;;;17.70;99.90;;;;;;5027756;28;20026;-56
2023/09/20 05:24:14;;;;;;;11.75;3.65;;;17.60;99.90;;;;;;5016950;28;20038;-54
2023/09/20 05:26:40;;;;;;;11.20;2.90;;;17.40;99.90;;;;;;5021865;28;20030;-54
2023/09/20 05:29:09;;;;;;;12.60;3.40;;;;;;;;;;5028224;28;20064;-53
2023/09/20 05:31:36;;;;;;;11.63;3.25;;;17.60;99.90;;;;;;5027638;28;20396;-55
2023/09/20 05:34:02;;;;;;;12.43;3.00;;;17.00;99.90;;;;;;5028292;28;20116;-55
2023/09/20 05:36:29;;;;;;;12.02;3.38;;;17.30;99.90;;;;;;5027845;28;20033;-57
2023/09/20 05:38:54;;;;;;;13.50;3.55;;;17.30;99.90;;;;;;5027949;28;20118;-55
2023/09/20 05:41:20;;;;;;;12.88;3.53;;;17.20;99.90;;;;;;5008585;28;20126;-56
2023/09/20 05:43:46;;;;;;;12.27;3.28;;;;;;;;;;5028178;28;20033;-56
2023/09/20 05:46:13;;;;;;;11.73;3.17;;;;;;;;;;5028619;28;20033;-55
2023/09/20 05:48:39;;;;;;;12.13;3.28;;;17.40;99.90;;;;;;5029338;28;20477;-55
2023/09/20 05:51:05;;;;;;;14.00;3.60;;;17.40;99.90;;;;;;5026953;28;20029;-55
2023/09/20 05:53:32;;;;;;;8.57;3.00;;;17.30;99.90;;;;;;5025202;28;20045;-56
2023/09/20 05:56:05;;;;;;;10.98;3.20;;;17.30;99.90;;;;;;5025740;28;20069;-54
2023/09/20 05:58:31;;;;;;;12.43;3.40;;;17.30;99.90;;;;;;5025393;28;20033;-55
2023/09/20 06:00:59;;;;;;;10.93;3.70;;;17.20;99.90;;;;;;5020297;28;20485;-55
2023/09/20 06:03:25;;;;;;;14.85;3.60;;;17.20;99.90;;;;;;5019313;28;20514;-53
2023/09/20 06:05:50;;;;;;;10.48;3.67;;;17.10;99.90;;;;;;5022872;28;20026;-53
2023/09/20 06:08:16;;;;;;;11.90;3.55;;;17.20;99.90;;;;;;5007763;28;20041;-54
2023/09/20 06:10:44;;;;;;;12.32;3.60;;;17.10;99.90;;;;;;5007949;28;20057;-54
2023/09/20 06:13:10;;;;;;;11.32;3.42;;;17.00;99.90;;;;;;5007730;28;20084;-53
2023/09/20 06:15:37;;;;;;;11.85;3.63;;;17.00;99.90;;;;;;5015146;28;20485;-55
2023/09/20 06:18:03;;;;;;;13.48;3.70;;;17.00;99.90;;;;;;5008300;28;20041;-54
2023/09/20 06:20:29;;;;;;;13.98;3.40;;;17.10;99.90;;;;;;5006929;28;20041;-55
2023/09/20 06:22:56;;;;;;;8.60;3.50;;;17.10;99.90;;;;;;5015470;28;20087;-56
2023/09/20 06:25:22;;;;;;;11.32;3.95;;;17.20;99.90;;;;;;5024980;28;20038;-54
2023/09/20 06:27:53;;;;;;;13.68;3.65;;;17.20;99.90;;;;;;5027255;28;20124;-52
2023/09/20 06:30:22;;;;;;;10.02;3.95;;;17.30;99.90;;;;;;5027032;28;20040;-55
2023/09/20 06:32:48;;;;;;;26.88;5.28;;;17.30;99.90;;;;;;5027713;28;20493;-55
2023/09/20 06:35:15;;;;;;;14.32;3.65;;;17.30;99.90;;;;;;5021942;28;20060;-53
2023/09/20 06:37:45;;;;;;;13.82;3.55;;;17.40;99.90;;;;;;5026436;28;20092;-55
2023/09/20 06:40:17;;;;;;;11.90;3.30;;;17.30;99.90;;;;;;5026973;28;20037;-55
2023/09/20 06:42:43;;;;;;;10.25;3.40;;;17.30;99.90;;;;;;5027323;28;20484;-55
2023/09/20 06:45:11;;;;;;;10.82;3.47;;;17.30;99.90;;;;;;5027266;28;20116;-55
2023/09/20 06:47:36;;;;;;;17.38;6.75;;;17.40;99.90;;;;;;5026862;28;20053;-55
2023/09/20 06:50:03;;;;;;;13.20;3.45;;;17.30;99.90;;;;;;5026740;28;20509;-54
2023/09/20 06:52:29;;;;;;;9.90;3.53;;;17.30;99.90;;;;;;5025788;28;20094;-55
2023/09/20 06:54:54;;;;;;;22.23;6.32;;;17.30;99.90;;;;;;5027606;28;20033;-55
2023/09/20 06:57:22;;;;;;;9.00;3.88;;;17.40;99.90;;;;;;5026435;28;20511;-55
2023/09/20 06:59:51;;;;;;;23.33;5.68;;;17.40;99.90;;;;;;5023304;28;20053;-54
2023/09/20 07:02:17;;;;;;;10.95;3.28;;;17.40;99.90;;;;;;5023567;28;20072;-54
2023/09/20 07:04:43;;;;;;;9.90;3.17;;;17.50;99.90;;;;;;5026407;28;20322;-55
2023/09/20 07:07:10;;;;;;;7.72;3.10;;;17.50;99.90;;;;;;5025032;28;20061;-55
2023/09/20 07:09:37;;;;;;;10.23;3.80;;;17.40;99.90;;;;;;5028460;28;20041;-55
2023/09/20 07:12:03;;;;;;;12.98;3.00;;;17.50;99.90;;;;;;5038539;28;20037;-55
2023/09/20 07:14:31;;;;;;;9.27;3.63;;;17.50;99.90;;;;;;5025700;28;20037;-55
2023/09/20 07:17:00;;;;;;;7.57;3.35;;;17.50;99.90;;;;;;5025570;28;20432;-54
2023/09/20 07:19:29;;;;;;;11.10;3.40;;;17.50;99.90;;;;;;5024982;28;20092;-55
2023/09/20 07:21:55;;;;;;;8.82;3.50;;;17.60;99.90;;;;;;5025847;28;20568;-54
2023/09/20 07:24:24;;;;;;;11.55;3.80;;;17.60;99.90;;;;;;5023903;28;20052;-52
2023/09/20 07:26:51;;;;;;;12.60;3.40;;;17.70;99.90;;;;;;5024564;28;20560;-55
2023/09/20 07:29:18;;;;;;;10.57;3.10;;;17.80;99.90;;;;;;5024403;28;20175;-53
2023/09/20 07:31:45;;;;;;;10.50;3.38;;;17.80;99.90;;;;;;5024158;28;20033;-54
2023/09/20 07:34:12;;;;;;;14.50;3.67;;;17.90;99.90;;;;;;5023782;28;20128;-53
2023/09/20 07:36:43;;;;;;;13.50;3.80;;;18.00;99.90;;;;;;5024756;28;20025;-54
2023/09/20 07:39:12;;;;;;;12.68;3.58;;;17.90;99.90;;;;;;5023901;28;20112;-54
2023/09/20 07:41:44;;;;;;;10.85;3.28;;;17.90;99.90;;;;;;5019406;28;20037;-54
2023/09/20 07:44:11;;;;;;;12.50;3.72;;;18.00;99.90;;;;;;5004476;28;20573;-53
2023/09/20 07:46:38;;;;;;;9.60;3.55;;;18.10;99.90;;;;;;5019715;28;20393;-53
2023/09/20 07:49:09;;;;;;;8.18;2.97;;;18.10;99.90;;;;;;5028212;28;20033;-55
2023/09/20 07:51:39;;;;;;;9.05;3.25;;;18.20;99.90;;;;;;5043045;28;20041;-54
2023/09/20 07:54:06;;;;;;;9.75;3.65;;;18.30;99.90;;;;;;5010050;28;20258;-54
2023/09/20 07:56:34;;;;;;;10.65;3.35;;;18.30;99.90;;;;;;5008766;28;20633;-55
2023/09/20 07:59:00;;;;;;;12.60;3.30;;;18.50;99.90;;;;;;5007196;28;20022;-53
2023/09/20 08:01:29;;;;;;;12.90;3.05;;;18.60;99.90;;;;;;5008434;28;20457;-54
2023/09/20 08:03:58;;;;;;;8.80;2.92;;;18.60;99.90;;;;;;5002084;28;20045;-53
2023/09/20 08:06:28;;;;;;;10.25;3.25;;;18.70;99.90;;;;;;4992425;28;20022;-54
2023/09/20 08:08:55;;;;;;;11.80;3.15;;;18.80;99.90;;;;;;4988525;28;20089;-54
2023/09/20 08:11:20;;;;;;;7.43;3.05;;;19.00;99.90;;;;;;4988738;28;20028;-51
2023/09/20 08:13:46;;;;;;;10.00;3.05;;;19.10;99.90;;;;;;4988654;28;20104;-54
2023/09/20 08:16:12;;;;;;;9.07;2.92;;;19.10;99.90;;;;;;4996027;28;20093;-55
2023/09/20 08:21:25;;;;;;;16.85;3.80;;;19.30;99.90;;;;;;5008524;28;20033;-56
2023/09/20 08:59:53;;;;;;;9.18;2.97;;;19.40;99.90;;;;;;5024724;28;20032;-54
2023/09/20 09:02:24;;;;;;;7.27;2.67;;;19.50;99.90;;;;;;5025958;28;20042;-53
2023/09/20 09:04:53;;;;;;;9.07;2.83;;;19.70;99.90;;;;;;5007088;28;20026;-57
2023/09/20 09:07:25;;;;;;;8.32;2.60;;;19.80;99.90;;;;;;5005387;28;20080;-55
2023/09/20 09:09:52;;;;;;;6.75;2.70;;;19.90;99.90;;;;;;5011695;28;20547;-54
2023/09/20 09:12:18;;;;;;;7.00;2.80;;;20.00;99.90;;;;;;5025443;28;20033;-54
2023/09/20 09:14:47;;;;;;;10.63;2.85;;;20.10;99.90;;;;;;5024866;28;20032;-55
2023/09/20 09:17:14;;;;;;;7.18;2.45;;;20.10;99.90;;;;;;5026235;28;20129;-53
2023/09/20 09:19:40;;;;;;;7.53;2.40;;;20.20;99.90;;;;;;5026000;28;20370;-56
2023/09/20 09:22:10;;;;;;;5.90;2.50;;;20.20;99.90;;;;;;5017516;28;20034;-60
2023/09/20 09:24:44;;;;;;;10.82;2.88;;;20.20;99.90;;;;;;5027957;28;20473;-55
2023/09/20 09:27:10;;;;;;;7.05;2.33;;;20.10;99.90;;;;;;5024860;28;20032;-56
2023/09/20 09:29:37;;;;;;;5.82;2.33;;;20.10;99.90;;;;;;5036447;28;20026;-54
2023/09/20 09:32:04;;;;;;;8.35;2.85;;;20.10;99.90;;;;;;5027550;28;20430;-56
2023/09/20 09:34:30;;;;;;;7.35;2.60;;;20.10;99.90;;;;;;5028306;28;20032;-55
2023/09/20 09:36:56;;;;;;;7.20;2.50;;;20.10;99.90;;;;;;5028993;28;20021;-56
2023/09/20 09:39:22;;;;;;;8.02;2.42;;;20.10;99.90;;;;;;5028301;28;20044;-54
2023/09/20 09:41:47;;;;;;;8.70;2.42;;;20.10;99.90;;;;;;5023495;28;20037;-55
2023/09/20 09:44:14;;;;;;;6.55;2.47;;;20.20;99.90;;;;;;5024890;28;20063;-56
2023/09/20 09:46:41;;;;;;;9.00;2.83;;;20.30;99.90;;;;;;5028744;28;20053;-55
2023/09/20 09:49:11;;;;;;;14.65;2.97;;;20.40;99.90;;;;;;5028196;28;20112;-56
2023/09/20 09:51:50;;;;;;;10.07;2.40;;;20.40;99.90;;;;;;5027541;28;20444;-54
2023/09/20 09:54:17;;;;;;;9.55;2.80;;;20.50;99.90;;;;;;5026847;28;20072;-53
2023/09/20 09:56:43;;;;;;;6.18;2.35;;;20.50;99.90;;;;;;5028566;28;20038;-53
2023/09/20 09:59:10;;;;;;;6.05;1.92;;;20.50;99.90;;;;;;5027884;28;20034;-54
2023/09/20 10:01:37;;;;;;;6.50;2.05;;;20.60;99.90;;;;;;5028287;28;20044;-53
2023/09/20 10:04:05;;;;;;;5.45;2.08;;;20.70;99.90;;;;;;5027394;28;20440;-53
2023/09/20 10:06:38;;;;;;;5.30;1.88;;;20.90;99.90;;;;;;5009494;28;20084;-54
2023/09/20 10:09:11;;;;;;;10.98;2.10;;;21.00;99.90;;;;;;5007797;28;20034;-54
2023/09/20 10:11:41;;;;;;;5.60;2.20;;;21.00;99.90;;;;;;5008265;28;20030;-53
2023/09/20 10:14:08;;;;;;;4.10;1.90;;;20.90;99.90;;;;;;5007870;28;20038;-54
2023/09/20 10:16:42;;;;;;;5.97;2.00;;;21.00;99.90;;;;;;5022464;28;20060;-55
2023/09/20 10:19:12;;;;;;;2.92;1.55;;;21.10;99.90;;;;;;5053361;28;20036;-53
2023/09/20 10:21:40;;;;;;;8.40;2.03;;;21.00;99.90;;;;;;5043022;28;20592;-53
2023/09/20 10:24:14;;;;;;;10.57;1.70;;;21.10;99.90;;;;;;5025645;28;20037;-55
2023/09/20 10:26:40;;;;;;;8.25;1.70;;;21.10;99.90;;;;;;5026159;28;20041;-54
2023/09/20 10:29:24;;;;;;;4.55;1.98;;;21.10;99.90;;;;;;5017299;28;20030;-54
2023/09/20 10:31:53;;;;;;;3.40;1.65;;;21.20;99.90;;;;;;4996578;28;20494;-52
2023/09/20 10:34:21;;;;;;;3.50;1.60;;;21.40;99.90;;;;;;5008014;28;20061;-49
2023/09/20 10:36:53;;;;;;;3.88;1.58;;;21.50;99.90;;;;;;4996190;28;20034;-51
2023/09/20 10:39:19;;;;;;;8.82;1.80;;;21.60;99.90;;;;;;5026559;28;20765;-50
2023/09/20 10:41:46;;;;;;;7.53;1.85;;;21.70;99.90;;;;;;5037057;28;20038;-51
2023/09/20 10:44:38;;;;;;;4.53;1.70;;;21.60;99.90;;;;;;5009818;28;20646;-51
2023/09/20 10:47:14;;;;;;;4.70;1.90;;;21.50;99.90;;;;;;5020107;28;20405;-48
2023/09/20 10:49:52;;;;;;;4.22;2.03;;;21.50;99.90;;;;;;5021562;28;20056;-51
2023/09/20 10:52:32;;;;;;;5.88;1.80;;;21.40;99.90;;;;;;5033927;28;20045;-47
2023/09/20 10:55:19;;;;;;;6.50;1.80;;;21.40;99.90;;;;;;5025070;28;20021;-51
2023/09/20 10:57:46;;;;;;;6.22;1.92;;;21.30;99.90;;;;;;5024601;28;20747;-48
2023/09/20 11:00:14;;;;;;;5.85;2.05;;;21.20;99.90;;;;;;5011633;28;20036;-52
2023/09/20 11:02:42;;;;;;;6.30;1.60;;;21.20;99.90;;;;;;5005025;28;20034;-52
2023/09/20 11:05:11;;;;;;;8.13;1.77;;;21.30;99.90;;;;;;5004237;28;20045;-50
2023/09/20 11:07:39;;;;;;;4.13;1.48;;;21.40;99.90;;;;;;5005798;28;20544;-50
2023/09/20 11:10:10;;;;;;;6.93;1.88;;;21.40;99.90;;;;;;5004110;28;20065;-51
2023/09/20 11:12:36;;;;;;;4.10;1.50;;;21.50;99.90;;;;;;5008160;28;20037;-52
2023/09/20 11:15:05;;;;;;;3.03;1.50;;;21.50;99.90;;;;;;5024413;28;20036;-52
2023/09/20 11:17:31;;;;;;;4.63;1.50;;;21.50;99.90;;;;;;5025119;28;20041;-50
2023/09/20 11:19:58;;;;;;;4.72;1.65;;;21.50;99.90;;;;;;5024629;28;20497;-52
2023/09/20 11:22:23;;;;;;;5.38;1.70;;;21.60;99.90;;;;;;5021623;28;20029;-52
2023/09/20 11:24:51;;;;;;;7.57;1.85;;;21.60;99.90;;;;;;5023962;28;20025;-56
2023/09/20 11:27:17;;;;;;;6.40;1.67;;;21.60;99.90;;;;;;5023894;28;20627;-49
2023/09/20 11:29:48;;;;;;;8.55;2.00;;;21.60;99.90;;;;;;5022716;28;20032;-54
2023/09/20 11:32:15;;;;;;;3.65;1.67;;;21.50;99.90;;;;;;5013196;28;20042;-51
2023/09/20 11:34:45;;;;;;;5.55;1.85;;;21.50;99.90;;;;;;5004969;28;20057;-52
2023/09/20 11:37:13;;;;;;;6.03;1.58;;;21.50;99.90;;;;;;5003942;28;20077;-48
2023/09/20 11:39:42;;;;;;;5.40;1.73;;;21.50;99.90;;;;;;5004279;28;20084;-51
2023/09/20 11:42:07;;;;;;;3.15;1.25;;;21.70;99.90;;;;;;5004042;28;20370;-51
2023/09/20 11:44:35;;;;;;;3.92;1.27;;;21.60;99.90;;;;;;5008048;28;20036;-49
2023/09/20 11:47:00;;;;;;;4.10;1.40;;;21.80;99.90;;;;;;5024316;28;20046;-51
2023/09/20 11:49:27;;;;;;;4.97;1.52;;;21.90;99.90;;;;;;5039228;28;20055;-52
2023/09/20 11:51:57;;;;;;;5.60;1.50;;;22.00;99.90;;;;;;5024538;28;20103;-51
2023/09/20 11:54:34;;;;;;;5.47;1.60;;;22.10;99.90;;;;;;5023346;28;20033;-52
2023/09/20 11:57:02;;;;;;;6.00;1.63;;;22.10;99.90;;;;;;5015844;28;20764;-52
2023/09/20 11:59:29;;;;;;;4.05;1.63;;;22.00;99.90;;;;;;5013784;28;20029;-52
2023/09/20 12:01:55;;;;;;;3.85;1.70;;;22.00;99.90;;;;;;5024141;28;20041;-50
2023/09/20 12:04:20;;;;;;;3.30;1.23;;;21.90;99.90;;;;;;5007258;28;20262;-52
2023/09/20 12:06:47;;;;;;;6.47;1.83;;;22.00;99.90;;;;;;5016952;28;20501;-53
2023/09/20 12:09:13;;;;;;;6.80;2.00;;;22.00;99.90;;;;;;5023648;28;20033;-51
2023/09/20 12:11:40;;;;;;;3.58;1.67;;;22.00;99.90;;;;;;5024663;28;20451;-50
2023/09/20 12:14:12;;;;;;;5.38;1.92;;;21.80;99.90;;;;;;5024040;28;20485;-48
2023/09/20 12:16:38;;;;;;;6.85;1.77;;;21.90;99.90;;;;;;5022943;28;20665;-52
2023/09/20 12:19:04;;;;;;;5.30;1.73;;;21.80;99.90;;;;;;5023442;28;20037;-54
2023/09/20 12:21:30;;;;;;;6.25;1.85;;;21.80;99.90;;;;;;5023892;28;20568;-48
2023/09/20 12:23:56;;;;;;;5.47;1.60;;;21.80;99.90;;;;;;5023342;28;20124;-51
2023/09/20 12:26:21;;;;;;;5.38;1.73;;;21.90;99.90;;;;;;5023864;28;20195;-52
2023/09/20 12:28:47;;;;;;;3.53;1.65;;;21.80;99.90;;;;;;5021753;28;20045;-52
2023/09/20 12:31:13;;;;;;;4.68;2.00;;;21.80;99.90;;;;;;5022483;28;20030;-53
2023/09/20 12:33:39;;;;;;;4.55;1.90;;;21.90;99.90;;;;;;5025766;28;20481;-51
2023/09/20 12:36:05;;;;;;;4.38;1.80;;;21.90;99.90;;;;;;5026669;28;20401;-51
2023/09/20 12:38:34;;;;;;;6.85;1.90;;;21.90;99.90;;;;;;5026909;28;20118;-51
2023/09/20 12:41:00;;;;;;;4.85;1.90;;;22.00;99.90;;;;;;5027365;28;20044;-51
2023/09/20 12:43:26;;;;;;;7.90;1.70;;;22.00;99.90;;;;;;5025617;28;20495;-52
2023/09/20 12:45:57;;;;;;;5.43;1.90;;;22.10;99.90;;;;;;5026182;28;20519;-53
2023/09/20 12:48:23;;;;;;;6.57;2.10;;;22.10;99.90;;;;;;5034407;28;20212;-51
2023/09/20 12:50:49;;;;;;;6.63;2.13;;;22.00;99.90;;;;;;5026392;28;20484;-52
2023/09/20 12:53:14;;;;;;;7.32;2.25;;;21.90;99.90;;;;;;4997736;28;20450;-49
2023/09/20 12:55:40;;;;;;;7.68;2.25;;;22.00;99.90;;;;;;4997843;28;20117;-52
2023/09/20 12:58:07;;;;;;;6.38;1.90;;;21.90;99.90;;;;;;5022059;28;20485;-51
2023/09/20 13:00:37;;;;;;;6.55;2.10;;;21.90;99.90;;;;;;5005759;28;20061;-51
2023/09/20 13:03:08;;;;;;;5.13;1.88;;;22.00;99.90;;;;;;5034182;28;20493;-50
2023/09/20 13:05:37;;;;;;;6.00;2.10;;;21.90;99.90;;;;;;5018665;28;20033;-51
2023/09/20 13:08:04;;;;;;;5.57;1.92;;;22.00;99.90;;;;;;5006947;28;20046;-51
2023/09/20 13:10:32;;;;;;;5.07;1.90;;;22.00;99.90;;;;;;5013105;28;20108;-52
2023/09/20 13:12:57;;;;;;;5.07;2.00;;;22.00;99.90;;;;;;5006230;28;20117;-52
2023/09/20 13:15:23;;;;;;;7.47;2.03;;;22.20;99.90;;;;;;5000847;28;20121;-53
2023/09/20 13:17:51;;;;;;;7.90;1.85;;;22.30;99.90;;;;;;4987809;28;20049;-52
2023/09/20 13:20:18;;;;;;;6.85;2.00;;;22.30;99.90;;;;;;4986746;28;20039;-52
2023/09/20 13:22:47;;;;;;;6.10;1.67;;;22.40;99.90;;;;;;4998743;28;20037;-53
2023/09/20 13:25:19;;;;;;;4.53;1.75;;;22.50;99.90;;;;;;5006766;28;20065;-51
2023/09/20 13:27:45;;;;;;;5.85;1.90;;;22.50;99.90;;;;;;5005659;28;20032;-51
2023/09/20 13:30:11;;;;;;;4.32;1.88;;;22.50;99.90;;;;;;5005990;28;20390;-51
2023/09/20 13:32:40;;;;;;;5.53;2.08;;;22.60;99.90;;;;;;5006688;28;20038;-49
2023/09/20 13:35:10;;;;;;;8.65;2.20;;;22.60;99.90;;;;;;5005806;28;20401;-53
2023/09/20 13:37:36;;;;;;;4.50;2.10;;;22.60;99.90;;;;;;4988755;28;20036;-52
2023/09/20 13:40:02;;;;;;;4.72;2.00;;;22.60;99.90;;;;;;4985831;28;20471;-53
2023/09/20 13:42:28;;;;;;;5.43;1.70;;;22.60;99.90;;;;;;5000946;28;20122;-51
2023/09/20 13:44:55;;;;;;;4.03;1.92;;;22.60;99.90;;;;;;5032281;28;20033;-52
2023/09/20 13:47:20;;;;;;;3.35;1.85;;;22.60;99.90;;;;;;5007866;28;20117;-51
2023/09/20 13:49:50;;;;;;;3.03;1.67;;;22.60;99.90;;;;;;5009131;28;20029;-52
2023/09/20 13:52:15;;;;;;;5.75;1.90;;;22.60;99.90;;;;;;5006611;28;20045;-51
2023/09/20 13:54:41;;;;;;;4.15;1.90;;;22.50;99.90;;;;;;5004342;28;20030;-53